Time;durP1;ratioP1;P1;durP2;ratioP2;P2;SDS_P1;SDS_P2;PMS_P1;PMS_P2;Temp;Humidity;BMP_temperature;BMP_pressure;BME280_temperature;BME280_humidity;BME280_pressure;Samples;Min_cycle;Max_cycle;Signal;HPM_P1;HPM_P2
2022/11/02 00:01:02;;;;;;;8.47;4.47;;;;;;;;;;4975635;28;20182;-91
2022/11/02 00:04:06;;;;;;;10.57;5.30;;;;;;;;;;4975715;28;20182;-91
2022/11/02 00:07:10;;;;;;;8.10;4.70;;;;;;;;;;4964456;28;20222;-90
2022/11/02 00:10:15;;;;;;;7.33;4.60;;;;;;;;;;4975680;28;20190;-91
2022/11/02 00:13:19;;;;;;;10.87;4.77;;;;;;;;;;4975170;28;20186;-91
2022/11/02 00:16:24;;;;;;;7.53;4.73;;;;;;;;;;4974644;28;20198;-90
2022/11/02 00:19:29;;;;;;;8.30;4.57;;;;;;;;;;4975045;28;20174;-91
2022/11/02 00:22:33;;;;;;;15.87;4.67;;;;;;;;;;4974029;28;20179;-91
2022/11/02 00:25:40;;;;;;;7.80;4.23;;;;;;;;;;4975545;28;20193;-91
2022/11/02 00:28:44;;;;;;;8.70;4.53;;;;;;;;;;4974294;28;20225;-91
2022/11/02 00:31:49;;;;;;;9.23;4.60;;;;;;;;;;4973381;28;20198;-91
2022/11/02 00:34:53;;;;;;;9.13;5.07;;;;;;;;;;4974638;28;20178;-91
2022/11/02 00:37:57;;;;;;;8.27;4.43;;;;;;;;;;4973747;28;20213;-90
2022/11/02 00:41:01;;;;;;;10.57;5.10;;;;;;;;;;4973861;28;20198;-91
2022/11/02 00:44:06;;;;;;;9.63;4.87;;;;;;;;;;4973889;28;20186;-90
2022/11/02 00:47:10;;;;;;;10.13;4.67;;;;;;;;;;4973198;28;20572;-90
2022/11/02 00:50:16;;;;;;;9.10;4.87;;;;;;;;;;4973895;28;20190;-91
2022/11/02 00:53:20;;;;;;;9.57;5.07;;;;;;;;;;4963196;28;20182;-90
2022/11/02 00:56:29;;;;;;;15.90;5.57;;;;;;;;;;4986788;28;20202;-90
2022/11/02 00:59:33;;;;;;;8.20;5.67;;;;;;;;;;4988984;28;20182;-91
2022/11/02 01:02:38;;;;;;;9.50;5.27;;;;;;;;;;4990052;28;20178;-91
2022/11/02 01:05:42;;;;;;;8.17;5.50;;;;;;;;;;4989519;28;20183;-90
2022/11/02 01:08:47;;;;;;;8.23;4.83;;;;;;;;;;4989217;28;20241;-91
2022/11/02 01:11:51;;;;;;;12.30;5.30;;;;;;;;;;4978040;28;20186;-91
2022/11/02 01:14:56;;;;;;;7.90;4.60;;;;;;;;;;4994241;28;20171;-90
2022/11/02 01:18:00;;;;;;;6.97;4.63;;;;;;;;;;4992486;28;20210;-91
2022/11/02 01:21:06;;;;;;;7.20;4.70;;;;;;;;;;4970971;28;20178;-90
2022/11/02 01:24:10;;;;;;;7.13;4.80;;;;;;;;;;4970719;28;20201;-90
2022/11/02 01:27:14;;;;;;;11.43;5.83;;;;;;;;;;4981059;28;20209;-91
2022/11/02 01:30:18;;;;;;;8.43;5.10;;;;;;;;;;4970052;28;20182;-90
2022/11/02 01:33:22;;;;;;;11.13;5.20;;;;;;;;;;5003579;28;20183;-90
2022/11/02 01:36:27;;;;;;;8.50;5.13;;;;;;;;;;4979900;28;20209;-90
2022/11/02 01:39:31;;;;;;;10.77;5.37;;;;;;;;;;4968575;28;20170;-91
2022/11/02 01:42:36;;;;;;;8.27;5.27;;;;;;;;;;4968204;28;20173;-91
2022/11/02 01:45:40;;;;;;;11.70;5.87;;;;;;;;;;4968399;28;20182;-91
2022/11/02 01:48:57;;;;;;;14.63;5.90;;;;;;;;;;4989397;28;20225;-91
2022/11/02 01:52:06;;;;;;;9.60;5.60;;;;;;;;;;4977776;28;20190;-90
2022/11/02 01:55:23;;;;;;;12.50;5.30;;;;;;;;;;4965805;28;20182;-90
2022/11/02 01:58:27;;;;;;;11.37;5.33;;;;;;;;;;4964817;28;20210;-90
2022/11/02 02:01:31;;;;;;;8.33;4.70;;;;;;;;;;4975712;28;20186;-90
2022/11/02 02:04:36;;;;;;;9.13;5.00;;;;;;;;;;4974986;28;20625;-90
2022/11/02 02:07:41;;;;;;;9.03;4.93;;;;;;;;;;4985516;28;20226;-90
2022/11/02 02:10:45;;;;;;;12.50;5.57;;;;;;;;;;4974248;28;20186;-90
2022/11/02 02:13:50;;;;;;;14.53;4.97;;;;;;;;;;4962342;28;20216;-90
2022/11/02 02:17:17;;;;;;;8.80;4.23;;;;;;;;;;4962770;28;20221;-90
2022/11/02 02:20:42;;;;;;;8.50;4.33;;;;;;;;;;4972929;28;20629;-90
2022/11/02 02:24:09;;;;;;;8.03;5.67;;;;;;;;;;4961989;28;20563;-90
2022/11/02 02:27:22;;;;;;;7.87;5.17;;;;;;;;;;4961745;28;20222;-91
2022/11/02 02:30:29;;;;;;;10.10;5.17;;;;;;;;;;4972637;28;20183;-90
2022/11/02 02:34:15;;;;;;;14.27;4.80;;;;;;;;;;4973514;28;20201;-91
2022/11/02 02:37:45;;;;;;;10.83;5.17;;;;;;;;;;4910354;28;20695;-89
2022/11/02 02:41:13;;;;;;;12.00;5.47;;;;;;;;;;4961788;28;20182;-89
2022/11/02 02:44:21;;;;;;;15.57;5.53;;;;;;;;;;4961393;28;20186;-89
2022/11/02 02:47:29;;;;;;;9.30;5.27;;;;;;;;;;4982949;28;20226;-89
2022/11/02 02:50:41;;;;;;;6.80;5.17;;;;;;;;;;4961506;28;20190;-89
2022/11/02 02:54:01;;;;;;;7.87;4.97;;;;;;;;;;4960703;28;20190;-89
2022/11/02 02:57:10;;;;;;;8.30;5.20;;;;;;;;;;4971918;28;20218;-89
2022/11/02 03:00:16;;;;;;;5.03;3.87;;;;;;;;;;4972066;28;20174;-90
2022/11/02 03:03:25;;;;;;;7.97;5.00;;;;;;;;;;4960657;28;20206;-89
2022/11/02 03:06:33;;;;;;;8.20;4.77;;;;;;;;;;4982724;28;20178;-90
2022/11/02 03:09:57;;;;;;;9.87;5.27;;;;;;;;;;4972211;28;20206;-89
2022/11/02 03:13:36;;;;;;;8.47;4.80;;;;;;;;;;4964613;28;20187;-89
2022/11/02 03:16:59;;;;;;;9.60;4.80;;;;;;;;;;4964287;28;20179;-89
2022/11/02 03:20:29;;;;;;;8.00;4.60;;;;;;;;;;4975591;28;20617;-89
2022/11/02 03:23:58;;;;;;;8.30;5.20;;;;;;;;;;4964089;28;20600;-89
2022/11/02 03:27:17;;;;;;;12.63;5.87;;;;;;;;;;4964084;28;20213;-89
2022/11/02 03:30:25;;;;;;;8.90;4.83;;;;;;;;;;4975054;28;20175;-89
2022/11/02 03:33:35;;;;;;;8.07;5.30;;;;;;;;;;4985996;28;20202;-89
2022/11/02 03:36:48;;;;;;;9.37;5.20;;;;;;;;;;4963940;28;20194;-89
2022/11/02 03:39:58;;;;;;;7.70;5.27;;;;;;;;;;4975218;28;20178;-89
2022/11/02 03:43:05;;;;;;;6.03;5.20;;;;;;;;;;4963688;28;20182;-89
2022/11/02 03:46:10;;;;;;;9.47;5.50;;;;;;;;;;4974898;28;20186;-89
2022/11/02 03:49:19;;;;;;;6.60;4.77;;;;;;;;;;5018712;23;20242;-88
2022/11/02 03:52:28;;;;;;;7.10;4.90;;;;;;;;;;4974361;28;20571;-87
2022/11/02 03:55:41;;;;;;;7.13;5.03;;;;;;;;;;4974488;28;20175;-87
2022/11/02 04:03:32;;;;;;;12.30;8.33;;;;;;;;;;4996618;28;20187;-87
2022/11/02 04:06:40;;;;;;;13.83;7.77;;;;;;;;;;4963914;28;20566;-87
2022/11/02 04:09:44;;;;;;;17.33;7.60;;;;;;;;;;4963190;28;20226;-87
2022/11/02 04:16:13;;;;;;;10.03;6.80;;;;;;;;;;4974253;28;20533;-86
2022/11/02 04:19:27;;;;;;;14.87;6.70;;;;;;;;;;4963094;28;20214;-86
2022/11/02 04:25:57;;;;;;;12.17;6.13;;;;;;;;;;4974264;28;20178;-86
2022/11/02 04:29:12;;;;;;;9.90;5.83;;;;;;;;;;4963867;28;20226;-87
2022/11/02 04:33:31;;;;;;;10.63;6.03;;;;;;;;;;4963335;28;20198;-87
2022/11/02 04:35:45;;;;;;;12.27;6.20;;;;;;;;;;4985106;28;20266;-86
2022/11/02 04:38:50;;;;;;;9.13;5.87;;;;;;;;;;4962963;28;20214;-86
2022/11/02 04:42:01;;;;;;;10.23;5.37;;;;;;;;;;4964088;28;20186;-86
2022/11/02 04:45:11;;;;;;;11.03;5.43;;;;;;;;;;4984902;28;20179;-86
2022/11/02 04:48:15;;;;;;;8.70;5.37;;;;;;;;;;4962833;28;20688;-86
2022/11/02 04:51:22;;;;;;;12.50;5.77;;;;;;;;;;4973952;28;20187;-86
2022/11/02 04:54:27;;;;;;;10.77;5.70;;;;;;;;;;4962861;28;20194;-86
2022/11/02 04:57:35;;;;;;;8.87;5.20;;;;;;;;;;4974045;28;20182;-87
2022/11/02 05:00:41;;;;;;;9.27;5.47;;;;;;;;;;4962609;28;20617;-86
2022/11/02 05:03:49;;;;;;;6.90;5.10;;;;;;;;;;4963329;28;20517;-87
2022/11/02 05:06:53;;;;;;;7.43;5.10;;;;;;;;;;4963008;28;20291;-87
2022/11/02 05:09:59;;;;;;;10.77;4.83;;;;;;;;;;4962896;28;20222;-87
2022/11/02 05:13:03;;;;;;;8.60;4.70;;;;;;;;;;4984578;28;20178;-87
2022/11/02 05:16:13;;;;;;;7.83;4.47;;;;;;;;;;4963048;28;20186;-86
2022/11/02 05:19:17;;;;;;;10.27;4.90;;;;;;;;;;4963055;28;20213;-87
2022/11/02 05:22:22;;;;;;;7.63;4.73;;;;;;;;;;4962291;28;20194;-87
2022/11/02 05:25:27;;;;;;;9.13;5.10;;;;;;;;;;4962610;28;20186;-87
2022/11/02 05:28:32;;;;;;;6.33;4.70;;;;;;;;;;4962571;28;20213;-86
2022/11/02 05:31:37;;;;;;;9.00;4.53;;;;;;;;;;4962479;28;20178;-86
2022/11/02 05:34:41;;;;;;;9.87;4.93;;;;;;;;;;4971960;28;20174;-86
2022/11/02 05:37:47;;;;;;;7.03;4.47;;;;;;;;;;4962137;28;20178;-87
2022/11/02 05:40:56;;;;;;;9.23;4.43;;;;;;;;;;4962151;28;20194;-86
2022/11/02 05:44:02;;;;;;;8.20;4.97;;;;;;;;;;4962358;28;20178;-86
2022/11/02 05:47:08;;;;;;;6.93;4.97;;;;;;;;;;4973016;28;20174;-86
2022/11/02 05:50:12;;;;;;;8.23;4.83;;;;;;;;;;4961700;28;20226;-85
2022/11/02 05:53:47;;;;;;;7.00;4.57;;;;;;;;;;4973181;28;20201;-88
2022/11/02 05:58:29;;;;;;;5.40;4.17;;;;;;;;;;4939887;29;20579;-87
2022/11/02 15:26:43;;;;;;;8.47;1.40;;;;;;;;;;5017950;28;20305;-92
2022/11/02 15:30:33;;;;;;;5.27;1.60;;;;;;;;;;4976608;28;20237;-92
2022/11/02 15:34:01;;;;;;;8.10;2.25;;;;;;;;;;5004902;28;20703;-92
2022/11/02 15:38:05;;;;;;;8.27;1.60;;;;;;;;;;5018625;28;20211;-92
2022/11/02 15:43:02;;;;;;;5.70;1.33;;;;;;;;;;5019512;28;20185;-92
2022/11/02 15:47:25;;;;;;;5.90;1.50;;;;;;;;;;5018785;28;20632;-87
2022/11/02 16:05:58;;;;;;;7.20;1.40;;;;;;;;;;4966661;28;20206;-92
2022/11/02 16:10:59;;;;;;;8.17;1.27;;;;;;;;;;5013426;28;20233;-91
2022/11/02 16:15:28;;;;;;;3.90;1.43;;;;;;;;;;4990838;28;20198;-92
2022/11/02 16:34:32;;;;;;;3.27;1.60;;;;;;;;;;5001230;28;20214;-89
2022/11/02 16:37:36;;;;;;;2.97;1.27;;;;;;;;;;4973277;28;20218;-91
2022/11/02 16:40:44;;;;;;;7.10;1.50;;;;;;;;;;4973679;28;20178;-91
2022/11/02 16:43:49;;;;;;;6.03;1.47;;;;;;;;;;4973497;28;20202;-91
2022/11/02 16:47:07;;;;;;;5.20;1.20;;;;;;;;;;4974236;28;20187;-91
2022/11/02 16:50:23;;;;;;;3.10;1.40;;;;;;;;;;4988693;28;20202;-91
2022/11/02 16:53:30;;;;;;;3.93;1.20;;;;;;;;;;4977811;28;20198;-91
2022/11/02 16:56:34;;;;;;;9.17;1.80;;;;;;;;;;4989373;28;20190;-91
2022/11/02 17:00:18;;;;;;;7.43;3.83;;;;;;;;;;4988672;28;20696;-91
2022/11/02 17:03:28;;;;;;;11.87;3.93;;;;;;;;;;4990408;28;20182;-91
2022/11/02 17:06:39;;;;;;;5.10;2.57;;;;;;;;;;4983534;28;20190;-91
2022/11/02 17:09:51;;;;;;;5.60;1.80;;;;;;;;;;4983209;28;20222;-91
2022/11/02 17:12:56;;;;;;;5.93;1.67;;;;;;;;;;4971551;28;20559;-91
2022/11/02 17:16:09;;;;;;;5.23;1.73;;;;;;;;;;4971523;28;20625;-90
2022/11/02 17:19:37;;;;;;;4.60;1.70;;;;;;;;;;4970673;28;20218;-90
2022/11/02 17:23:03;;;;;;;2.97;1.50;;;;;;;;;;4969394;28;20194;-90
2022/11/02 17:26:26;;;;;;;5.33;1.77;;;;;;;;;;4991209;28;20190;-90
2022/11/02 17:39:17;;;;;;;5.80;2.10;;;;;;;;;;4985730;28;20234;-91
2022/11/02 17:49:18;;;;;;;5.47;1.77;;;;;;;;;;4830181;29;20231;-89
2022/11/02 17:53:27;;;;;;;7.33;2.20;;;;;;;;;;4998113;28;20187;-90
2022/11/02 17:56:32;;;;;;;4.97;1.80;;;;;;;;;;4976855;28;20194;-90
2022/11/02 17:59:36;;;;;;;6.93;1.70;;;;;;;;;;4998643;28;20225;-90
2022/11/02 18:02:40;;;;;;;4.93;1.93;;;;;;;;;;4976523;28;20174;-90
2022/11/02 18:05:45;;;;;;;5.30;1.60;;;;;;;;;;4975804;28;20186;-90
2022/11/02 18:12:16;;;;;;;8.80;2.63;;;;;;;;;;4997113;28;20210;-90
2022/11/02 18:15:23;;;;;;;7.30;2.20;;;;;;;;;;4975529;28;20174;-89
2022/11/02 18:19:22;;;;;;;5.93;1.33;;;;;;;;;;4976099;28;20221;-91
2022/11/02 18:22:27;;;;;;;5.20;1.50;;;;;;;;;;4996558;28;20185;-89
2022/11/02 18:25:32;;;;;;;5.67;1.57;;;;;;;;;;4974361;28;20641;-89
2022/11/02 18:28:37;;;;;;;5.60;1.53;;;;;;;;;;4967302;28;20226;-89
2022/11/02 18:31:41;;;;;;;4.30;1.87;;;;;;;;;;4986893;28;20209;-90
2022/11/02 18:34:45;;;;;;;7.37;1.80;;;;;;;;;;4975425;28;20187;-89
2022/11/02 18:37:49;;;;;;;5.47;2.07;;;;;;;;;;4962705;28;20183;-88
2022/11/02 18:40:54;;;;;;;6.07;1.77;;;;;;;;;;4962119;28;20178;-89
2022/11/02 18:44:01;;;;;;;3.93;1.73;;;;;;;;;;4962403;28;20190;-89
2022/11/02 18:47:05;;;;;;;10.93;4.37;;;;;;;;;;4996535;28;20628;-89
2022/11/02 18:50:12;;;;;;;8.17;3.27;;;;;;;;;;4973769;28;20267;-89
2022/11/02 18:53:16;;;;;;;7.27;2.47;;;;;;;;;;4980572;28;20575;-90
2022/11/02 18:56:21;;;;;;;5.00;1.97;;;;;;;;;;4972800;28;20186;-91
2022/11/02 18:59:25;;;;;;;4.63;1.80;;;;;;;;;;4983446;28;20222;-90
2022/11/02 19:02:30;;;;;;;5.53;2.13;;;;;;;;;;4965429;28;20179;-90
2022/11/02 19:09:22;;;;;;;5.93;1.90;;;;;;;;;;4944036;29;20690;-90
2022/11/02 19:12:28;;;;;;;4.23;2.00;;;;;;;;;;4955656;28;20219;-90
2022/11/02 19:15:33;;;;;;;5.67;1.90;;;;;;;;;;4962287;28;20186;-91
2022/11/02 19:18:37;;;;;;;3.87;1.67;;;;;;;;;;4972447;28;20222;-91
2022/11/02 19:21:42;;;;;;;5.23;2.00;;;;;;;;;;4961589;28;20187;-91
2022/11/02 19:24:46;;;;;;;4.27;1.90;;;;;;;;;;4983975;28;20187;-91
2022/11/02 19:27:50;;;;;;;6.40;2.23;;;;;;;;;;4972058;28;20190;-90
2022/11/02 19:30:54;;;;;;;4.03;1.83;;;;;;;;;;4972462;28;20637;-91
2022/11/02 19:33:59;;;;;;;4.67;2.10;;;;;;;;;;4972620;28;20183;-91
2022/11/02 19:37:04;;;;;;;8.40;2.37;;;;;;;;;;4972535;28;20193;-91
2022/11/02 19:40:09;;;;;;;8.20;2.33;;;;;;;;;;4983001;28;20230;-91
2022/11/02 19:43:13;;;;;;;6.50;2.37;;;;;;;;;;4961102;28;20174;-91
2022/11/02 19:46:20;;;;;;;6.90;2.07;;;;;;;;;;4983878;28;20178;-91
2022/11/02 19:49:24;;;;;;;4.70;2.20;;;;;;;;;;4972471;28;20222;-90
2022/11/02 19:52:29;;;;;;;3.70;2.30;;;;;;;;;;4973005;28;20214;-90
2022/11/02 19:55:33;;;;;;;5.50;2.50;;;;;;;;;;4976760;28;20178;-90
2022/11/02 19:58:39;;;;;;;9.97;2.47;;;;;;;;;;4986844;28;20226;-91
2022/11/02 20:01:46;;;;;;;5.07;2.27;;;;;;;;;;4986216;28;20202;-90
2022/11/02 20:04:51;;;;;;;5.30;2.40;;;;;;;;;;4970712;28;20206;-91
2022/11/02 20:07:55;;;;;;;6.13;2.10;;;;;;;;;;4999137;28;20186;-90
2022/11/02 20:11:07;;;;;;;5.00;2.10;;;;;;;;;;4986552;28;20178;-91
2022/11/02 20:14:13;;;;;;;4.10;2.30;;;;;;;;;;4975830;28;20198;-92
2022/11/02 20:17:17;;;;;;;4.23;2.30;;;;;;;;;;4976103;28;20182;-92
2022/11/02 20:20:22;;;;;;;5.33;2.37;;;;;;;;;;4975847;28;20633;-92
2022/11/02 20:23:26;;;;;;;10.47;2.70;;;;;;;;;;4987141;28;20199;-91
2022/11/02 20:26:34;;;;;;;7.70;2.37;;;;;;;;;;4986684;28;20198;-92
2022/11/02 20:29:39;;;;;;;4.20;2.23;;;;;;;;;;4963916;28;20217;-89
2022/11/02 20:32:43;;;;;;;6.60;2.80;;;;;;;;;;4964920;28;20213;-89
2022/11/02 20:35:48;;;;;;;6.70;2.77;;;;;;;;;;4976267;28;20187;-89
2022/11/02 20:38:53;;;;;;;6.73;3.33;;;;;;;;;;4986814;28;20233;-89
2022/11/02 20:41:57;;;;;;;8.83;3.67;;;;;;;;;;4960431;28;20206;-89
2022/11/02 20:45:02;;;;;;;9.70;4.63;;;;;;;;;;4975923;28;20629;-89
2022/11/02 20:48:07;;;;;;;6.00;3.50;;;;;;;;;;4997657;28;20226;-90
2022/11/02 20:51:15;;;;;;;6.43;3.77;;;;;;;;;;4974870;28;20190;-89
2022/11/02 20:54:21;;;;;;;8.93;3.90;;;;;;;;;;4986132;28;20194;-88
2022/11/02 20:57:27;;;;;;;7.83;4.40;;;;;;;;;;4964694;28;20182;-89
2022/11/02 21:00:31;;;;;;;8.90;4.50;;;;;;;;;;4975217;28;20186;-89
2022/11/02 21:03:35;;;;;;;7.57;4.43;;;;;;;;;;4963789;28;20178;-89
2022/11/02 21:06:39;;;;;;;14.87;5.07;;;;;;;;;;4985733;28;20187;-89
2022/11/02 21:09:44;;;;;;;19.63;5.00;;;;;;;;;;4968103;28;20569;-89
2022/11/02 21:16:12;;;;;;;11.47;5.03;;;;;;;;;;4993396;28;20201;-89
2022/11/02 21:19:16;;;;;;;9.80;4.47;;;;;;;;;;4981146;28;20569;-89
2022/11/02 21:22:20;;;;;;;9.67;4.40;;;;;;;;;;4964081;28;20178;-89
2022/11/02 21:25:25;;;;;;;12.73;5.93;;;;;;;;;;4964076;28;20280;-89
2022/11/02 21:28:31;;;;;;;10.63;5.20;;;;;;;;;;4973588;28;20218;-89
2022/11/02 21:31:35;;;;;;;12.77;5.47;;;;;;;;;;4973689;28;20548;-89
2022/11/02 21:34:39;;;;;;;9.33;4.33;;;;;;;;;;4962759;28;20521;-89
2022/11/02 21:37:44;;;;;;;9.20;3.87;;;;;;;;;;4963173;28;20185;-89
2022/11/02 21:40:48;;;;;;;7.63;3.80;;;;;;;;;;4963010;28;20178;-89
2022/11/02 21:43:54;;;;;;;8.93;3.47;;;;;;;;;;4962681;28;20198;-89
2022/11/02 21:46:58;;;;;;;6.20;3.20;;;;;;;;;;4973625;28;20550;-89
2022/11/02 21:50:07;;;;;;;5.63;3.20;;;;;;;;;;4974741;28;20217;-89
2022/11/02 21:53:11;;;;;;;4.43;2.97;;;;;;;;;;4974941;28;20206;-89
2022/11/02 21:56:21;;;;;;;5.63;3.20;;;;;;;;;;4986057;28;20534;-89
2022/11/02 21:59:26;;;;;;;6.60;3.57;;;;;;;;;;4986071;28;20217;-89
2022/11/02 22:02:30;;;;;;;8.47;4.07;;;;;;;;;;4963882;28;20180;-89
2022/11/02 22:05:55;;;;;;;7.43;3.80;;;;;;;;;;4964958;28;20193;-89
2022/11/02 22:09:00;;;;;;;11.20;3.67;;;;;;;;;;4977648;28;20238;-88
2022/11/02 22:15:31;;;;;;;6.50;3.20;;;;;;;;;;4991852;28;20186;-88
2022/11/02 22:18:40;;;;;;;9.67;3.60;;;;;;;;;;4988478;28;20229;-89
2022/11/02 22:21:49;;;;;;;7.07;3.50;;;;;;;;;;4992924;28;20193;-89
2022/11/02 22:25:20;;;;;;;6.13;4.17;;;;;;;;;;4971350;28;20641;-90
2022/11/02 22:28:34;;;;;;;7.70;3.67;;;;;;;;;;4987856;28;20233;-89
2022/11/02 22:31:40;;;;;;;6.73;3.90;;;;;;;;;;5002553;28;20202;-89
2022/11/02 22:34:46;;;;;;;9.97;4.07;;;;;;;;;;4992012;28;20185;-89
2022/11/02 22:41:31;;;;;;;9.93;4.10;;;;;;;;;;5005467;28;20194;-88
2022/11/02 22:44:40;;;;;;;6.47;3.83;;;;;;;;;;4991548;28;20182;-88
2022/11/02 22:47:44;;;;;;;8.40;3.93;;;;;;;;;;4990922;28;20649;-88
2022/11/02 22:50:48;;;;;;;6.90;3.87;;;;;;;;;;5002494;28;20189;-88
2022/11/02 22:53:53;;;;;;;7.17;3.73;;;;;;;;;;4991323;28;20217;-88
2022/11/02 22:56:57;;;;;;;8.77;3.90;;;;;;;;;;5014440;28;20633;-88
2022/11/02 23:00:03;;;;;;;6.27;3.67;;;;;;;;;;5002384;28;20221;-88
2022/11/02 23:03:07;;;;;;;5.40;3.30;;;;;;;;;;5002128;28;20193;-88
2022/11/02 23:06:12;;;;;;;8.90;4.03;;;;;;;;;;4991232;28;20202;-89
2022/11/02 23:09:16;;;;;;;7.87;4.47;;;;;;;;;;4991057;28;20221;-88
2022/11/02 23:12:20;;;;;;;8.37;5.13;;;;;;;;;;5002645;28;20197;-89
2022/11/02 23:15:24;;;;;;;7.20;3.90;;;;;;;;;;5002679;28;20531;-89
2022/11/02 23:19:18;;;;;;;8.90;4.30;;;;;;;;;;5003441;28;20676;-88
2022/11/02 23:25:23;;;;;;;9.53;4.00;;;;;;;;;;5002714;28;20177;-89
2022/11/02 23:41:59;;;;;;;7.57;4.70;;;;;;;;;;4987614;28;20190;-89
2022/11/02 23:45:04;;;;;;;10.70;4.37;;;;;;;;;;4967634;28;20737;-89
2022/11/02 23:48:09;;;;;;;6.30;4.07;;;;;;;;;;4993886;28;20221;-89
2022/11/02 23:57:59;;;;;;;5.73;3.87;;;;;;;;;;4969937;28;20183;-89
